Time;durP1;ratioP1;P1;durP2;ratioP2;P2;SDS_P1;SDS_P2;PMS_P1;PMS_P2;Temp;Humidity;BMP_temperature;BMP_pressure;BME280_temperature;BME280_humidity;BME280_pressure;Samples;Min_cycle;Max_cycle;Signal;HPM_P1;HPM_P2
2021/01/30 00:01:18;;;;;;;1.40;0.70;;;7.10;68.80;;;;;;5077104;28;37009;-88
2021/01/30 00:03:45;;;;;;;0.97;0.80;;;7.10;68.60;;;;;;5067843;28;40928;-86
2021/01/30 00:06:12;;;;;;;1.10;0.97;;;7.10;68.70;;;;;;5077044;28;37753;-86
2021/01/30 00:08:39;;;;;;;1.10;0.93;;;7.10;68.70;;;;;;5073361;28;38995;-86
2021/01/30 00:11:06;;;;;;;1.60;0.80;;;7.10;68.70;;;;;;5069202;28;37735;-88
2021/01/30 00:13:33;;;;;;;1.90;0.90;;;7.20;68.70;;;;;;5070411;28;38773;-87
2021/01/30 00:16:00;;;;;;;2.90;2.13;;;7.20;68.60;;;;;;5069345;28;39803;-86
2021/01/30 00:18:28;;;;;;;2.63;1.90;;;7.20;68.80;;;;;;5070917;28;38637;-86
2021/01/30 00:20:55;;;;;;;2.23;2.00;;;7.20;68.50;;;;;;5070753;28;36285;-87
2021/01/30 00:23:22;;;;;;;2.43;1.70;;;7.20;68.00;;;;;;5067538;28;40609;-87
2021/01/30 00:25:49;;;;;;;1.40;1.20;;;7.20;68.10;;;;;;5071550;28;39048;-87
2021/01/30 00:28:16;;;;;;;1.87;0.93;;;7.30;68.00;;;;;;5068093;28;38118;-87
2021/01/30 00:30:43;;;;;;;3.03;1.13;;;7.30;67.50;;;;;;5065301;28;37528;-87
2021/01/30 00:33:10;;;;;;;3.57;1.93;;;7.30;67.00;;;;;;5091480;28;39639;-87
2021/01/30 00:35:38;;;;;;;1.87;0.70;;;7.30;66.70;;;;;;5102422;27;38541;-87
2021/01/30 00:38:11;;;;;;;1.30;0.70;;;7.30;66.60;;;;;;5094636;28;37408;-87
2021/01/30 00:40:38;;;;;;;0.80;0.70;;;7.40;66.60;;;;;;5082982;28;37672;-85
2021/01/30 00:43:06;;;;;;;1.20;0.73;;;7.30;66.30;;;;;;5086339;28;39071;-85
2021/01/30 00:45:43;;;;;;;1.07;0.73;;;7.30;66.40;;;;;;5083179;28;39581;-85
2021/01/30 00:48:10;;;;;;;0.70;0.53;;;7.30;66.40;;;;;;5071011;28;38727;-85
2021/01/30 00:50:38;;;;;;;1.27;0.60;;;7.30;66.60;;;;;;5083998;28;36291;-85
2021/01/30 00:53:05;;;;;;;1.63;0.60;;;7.30;66.80;;;;;;5071064;28;36916;-85
2021/01/30 00:55:42;;;;;;;1.00;0.60;;;7.30;66.60;;;;;;5068029;28;37885;-85
2021/01/30 00:58:10;;;;;;;1.00;0.80;;;7.30;66.50;;;;;;5086559;28;38046;-85
2021/01/30 01:00:40;;;;;;;0.80;0.60;;;7.30;66.40;;;;;;5065964;28;34162;-85
2021/01/30 01:03:14;;;;;;;1.80;0.60;;;7.30;66.20;;;;;;5085672;28;38221;-86
2021/01/30 01:05:57;;;;;;;2.13;0.60;;;7.30;65.70;;;;;;5062874;28;38925;-85
2021/01/30 01:08:24;;;;;;;2.30;0.80;;;7.20;65.30;;;;;;5068975;28;38361;-86
2021/01/30 01:10:51;;;;;;;0.80;0.50;;;7.20;65.20;;;;;;5062722;28;37383;-85
2021/01/30 01:13:18;;;;;;;0.80;0.63;;;7.20;65.00;;;;;;5075009;28;38541;-86
2021/01/30 01:15:45;;;;;;;1.17;0.50;;;7.30;64.80;;;;;;5068476;28;38681;-87
2021/01/30 01:18:13;;;;;;;0.70;0.60;;;7.30;64.20;;;;;;5069640;28;38018;-87
2021/01/30 01:20:40;;;;;;;0.70;0.40;;;7.30;63.80;;;;;;5064748;28;37900;-86
2021/01/30 01:23:14;;;;;;;0.70;0.50;;;7.40;63.60;;;;;;5069847;28;39427;-86
2021/01/30 01:25:41;;;;;;;1.00;0.60;;;7.40;63.20;;;;;;5064447;28;39740;-85
2021/01/30 01:28:09;;;;;;;1.03;0.50;;;7.40;62.80;;;;;;5070728;28;39646;-84
2021/01/30 01:30:37;;;;;;;1.60;0.70;;;7.40;62.80;;;;;;5068118;28;37543;-85
2021/01/30 01:33:10;;;;;;;0.87;0.50;;;7.40;62.50;;;;;;5056939;28;39502;-87
2021/01/30 01:35:43;;;;;;;0.70;0.60;;;7.50;62.50;;;;;;5059283;28;37750;-86
2021/01/30 01:38:14;;;;;;;2.27;0.50;;;7.50;62.30;;;;;;5065479;28;38238;-87
2021/01/30 01:40:44;;;;;;;1.77;0.57;;;7.40;62.00;;;;;;5069914;28;37176;-86
2021/01/30 01:43:14;;;;;;;0.80;0.50;;;7.40;61.90;;;;;;5069855;28;37981;-85
2021/01/30 01:45:43;;;;;;;2.30;0.60;;;7.40;61.90;;;;;;5056110;28;38210;-86
2021/01/30 01:48:19;;;;;;;1.30;0.87;;;7.30;61.90;;;;;;5063449;28;39274;-86
2021/01/30 01:50:50;;;;;;;1.47;0.60;;;7.30;61.90;;;;;;5074813;28;35943;-85
2021/01/30 01:53:23;;;;;;;0.60;0.40;;;7.30;61.70;;;;;;5066718;28;38368;-86
2021/01/30 01:55:55;;;;;;;0.93;0.57;;;7.40;61.80;;;;;;5055609;28;39084;-84
2021/01/30 01:58:24;;;;;;;0.93;0.60;;;7.40;61.50;;;;;;5078317;28;38207;-86
2021/01/30 02:00:53;;;;;;;0.80;0.60;;;7.40;61.60;;;;;;5055585;28;36891;-85
2021/01/30 02:03:23;;;;;;;2.50;0.73;;;7.50;61.50;;;;;;5059753;28;38545;-85
2021/01/30 02:05:50;;;;;;;1.43;0.60;;;7.40;61.00;;;;;;5080628;28;38096;-85
2021/01/30 02:08:20;;;;;;;0.70;0.50;;;7.50;61.10;;;;;;5066121;28;38436;-85
2021/01/30 02:10:50;;;;;;;2.37;1.00;;;7.50;60.90;;;;;;5070357;28;37936;-84
2021/01/30 02:13:20;;;;;;;0.80;0.60;;;7.50;60.70;;;;;;5072250;28;39939;-85
2021/01/30 02:15:53;;;;;;;1.37;0.50;;;7.50;60.70;;;;;;5078488;28;39042;-85
2021/01/30 02:18:32;;;;;;;0.73;0.57;;;7.50;60.70;;;;;;5069434;28;38664;-85
2021/01/30 02:21:30;;;;;;;1.67;0.50;;;7.50;60.70;;;;;;5068873;28;36881;-85
2021/01/30 02:24:37;;;;;;;0.70;0.50;;;7.40;60.70;;;;;;5070334;28;39510;-85
2021/01/30 02:27:12;;;;;;;2.30;0.50;;;7.40;60.60;;;;;;5064765;28;38759;-86
2021/01/30 02:30:13;;;;;;;0.60;0.40;;;7.40;61.00;;;;;;5072273;28;39165;-86
2021/01/30 02:33:07;;;;;;;0.73;0.50;;;7.40;61.10;;;;;;5063963;28;37795;-85
2021/01/30 02:36:12;;;;;;;0.93;0.50;;;7.20;61.40;;;;;;5067846;28;40870;-85
2021/01/30 02:38:44;;;;;;;0.60;0.40;;;7.30;61.50;;;;;;5014441;28;40241;-86
2021/01/30 02:41:15;;;;;;;0.80;0.50;;;7.30;61.70;;;;;;5071333;28;37082;-87
2021/01/30 02:43:45;;;;;;;2.40;0.60;;;7.30;61.80;;;;;;5069968;28;36569;-86
2021/01/30 02:46:19;;;;;;;1.17;0.90;;;7.40;61.60;;;;;;5064511;28;39737;-87
2021/01/30 02:48:48;;;;;;;1.93;0.90;;;7.40;61.50;;;;;;5057784;28;39249;-87
2021/01/30 02:51:23;;;;;;;1.20;0.50;;;7.30;61.40;;;;;;5060511;28;38675;-87
2021/01/30 02:53:56;;;;;;;0.97;0.50;;;7.30;61.40;;;;;;5080234;28;36012;-87
2021/01/30 02:56:24;;;;;;;1.20;0.50;;;7.20;61.60;;;;;;5068738;28;39938;-87
2021/01/30 02:58:54;;;;;;;0.90;0.60;;;7.20;62.00;;;;;;5061042;28;38485;-86
2021/01/30 03:01:21;;;;;;;3.90;0.60;;;7.20;62.00;;;;;;5066116;28;38343;-88
2021/01/30 03:03:48;;;;;;;0.90;0.60;;;7.10;62.00;;;;;;5069336;28;37920;-87
2021/01/30 03:06:20;;;;;;;0.70;0.60;;;7.10;62.00;;;;;;5067738;28;38932;-86
2021/01/30 03:08:54;;;;;;;0.67;0.43;;;7.00;62.00;;;;;;5068567;28;37853;-87
2021/01/30 03:11:26;;;;;;;1.20;0.50;;;6.90;62.20;;;;;;5068929;28;38232;-86
2021/01/30 03:13:58;;;;;;;0.67;0.53;;;6.80;62.20;;;;;;5064937;28;38380;-87
2021/01/30 03:16:29;;;;;;;0.60;0.40;;;6.70;62.60;;;;;;5062174;28;39996;-87
2021/01/30 03:19:01;;;;;;;0.87;0.50;;;6.60;63.00;;;;;;5054647;28;38783;-86
2021/01/30 03:21:30;;;;;;;1.00;0.50;;;6.60;63.60;;;;;;5062082;28;38591;-87
2021/01/30 03:24:00;;;;;;;1.73;0.60;;;6.60;63.90;;;;;;5069678;28;37070;-86
2021/01/30 03:26:29;;;;;;;1.30;0.60;;;6.70;64.10;;;;;;5054149;28;38532;-87
2021/01/30 03:28:56;;;;;;;0.77;0.50;;;6.70;63.90;;;;;;5069934;28;39911;-86
2021/01/30 03:31:24;;;;;;;1.77;0.67;;;6.80;63.70;;;;;;5057837;28;39204;-86
2021/01/30 03:33:51;;;;;;;1.23;0.57;;;6.90;63.40;;;;;;5063133;28;35752;-86
2021/01/30 03:36:20;;;;;;;0.60;0.40;;;6.90;63.30;;;;;;5056053;28;38571;-85
2021/01/30 03:38:47;;;;;;;1.93;0.50;;;7.00;63.10;;;;;;5068545;28;38786;-87
2021/01/30 03:41:14;;;;;;;0.60;0.40;;;7.00;62.80;;;;;;5071891;28;38155;-86
2021/01/30 03:43:42;;;;;;;0.80;0.50;;;7.00;62.40;;;;;;5068802;28;37832;-86
2021/01/30 03:46:09;;;;;;;1.00;0.70;;;7.10;62.50;;;;;;5056448;28;38811;-86
2021/01/30 03:48:36;;;;;;;0.93;0.60;;;7.10;62.50;;;;;;5062467;28;39212;-86
2021/01/30 03:51:04;;;;;;;0.80;0.50;;;7.10;62.40;;;;;;5060201;28;37475;-86
2021/01/30 03:53:31;;;;;;;0.60;0.50;;;7.10;62.50;;;;;;5063933;28;37058;-85
2021/01/30 03:55:58;;;;;;;1.10;0.60;;;7.10;62.50;;;;;;5060321;28;39697;-86
2021/01/30 03:58:25;;;;;;;0.90;0.53;;;7.10;62.50;;;;;;5066249;28;38304;-85
2021/01/30 04:00:53;;;;;;;0.80;0.53;;;7.10;62.60;;;;;;5067093;28;38845;-86
2021/01/30 04:03:20;;;;;;;0.60;0.50;;;7.10;62.60;;;;;;5066692;28;37058;-86
2021/01/30 04:05:47;;;;;;;0.60;0.40;;;7.20;62.50;;;;;;5065393;28;39565;-85
2021/01/30 04:08:14;;;;;;;1.40;0.63;;;7.20;62.40;;;;;;5061626;28;38236;-86
2021/01/30 04:10:41;;;;;;;0.60;0.43;;;7.20;62.90;;;;;;5069284;28;39099;-85
2021/01/30 04:13:10;;;;;;;0.70;0.50;;;7.20;62.20;;;;;;5066856;28;37156;-85
2021/01/30 04:15:43;;;;;;;0.70;0.50;;;7.20;62.20;;;;;;5079318;28;39462;-85
2021/01/30 04:18:12;;;;;;;0.70;0.40;;;7.20;62.10;;;;;;5072628;28;39290;-85
2021/01/30 04:20:40;;;;;;;0.90;0.50;;;7.20;62.10;;;;;;5066713;28;38961;-85
2021/01/30 04:23:07;;;;;;;1.57;0.57;;;7.20;61.90;;;;;;5072734;28;37580;-85
2021/01/30 04:25:34;;;;;;;1.30;0.73;;;7.20;61.80;;;;;;5071372;28;39375;-85
2021/01/30 04:28:03;;;;;;;1.03;0.67;;;7.20;61.50;;;;;;5072672;28;38572;-86
2021/01/30 04:30:31;;;;;;;0.87;0.50;;;7.20;61.60;;;;;;5059634;28;37365;-85
2021/01/30 04:32:59;;;;;;;0.80;0.53;;;7.20;61.20;;;;;;5062416;28;37308;-85
2021/01/30 04:35:30;;;;;;;1.73;0.63;;;7.20;61.20;;;;;;5067816;28;38521;-86
2021/01/30 04:38:00;;;;;;;0.73;0.50;;;7.20;61.00;;;;;;5064213;28;39078;-86
2021/01/30 04:40:31;;;;;;;0.80;0.50;;;7.20;61.00;;;;;;5062683;28;38291;-86
2021/01/30 04:43:10;;;;;;;1.50;0.70;;;7.20;60.70;;;;;;5065426;28;36981;-86
2021/01/30 04:45:48;;;;;;;0.90;0.53;;;7.10;61.10;;;;;;5064426;28;40000;-85
2021/01/30 04:48:30;;;;;;;1.17;0.57;;;7.10;60.60;;;;;;5062167;28;39150;-85
2021/01/30 04:51:07;;;;;;;2.70;0.73;;;7.00;60.70;;;;;;5068812;28;38758;-85
2021/01/30 04:53:54;;;;;;;1.03;0.60;;;7.00;60.60;;;;;;5054430;28;36815;-85
2021/01/30 04:56:32;;;;;;;2.10;0.60;;;7.00;60.80;;;;;;5067128;28;38425;-85
2021/01/30 04:59:07;;;;;;;2.70;0.70;;;7.00;61.10;;;;;;5066453;28;38328;-86
2021/01/30 05:01:44;;;;;;;1.37;0.70;;;7.00;61.10;;;;;;5068425;28;38719;-86
2021/01/30 05:04:16;;;;;;;0.63;0.50;;;7.00;61.00;;;;;;5065190;28;36784;-86
2021/01/30 05:07:04;;;;;;;3.13;0.60;;;7.00;60.70;;;;;;5065265;28;39435;-85
2021/01/30 05:09:36;;;;;;;4.63;0.60;;;7.10;60.30;;;;;;5063929;28;38983;-86
2021/01/30 05:12:10;;;;;;;1.27;0.70;;;7.10;60.00;;;;;;5059190;28;38268;-85
2021/01/30 05:14:43;;;;;;;2.30;0.67;;;7.20;60.00;;;;;;5070493;28;35668;-86
2021/01/30 05:17:18;;;;;;;2.83;0.90;;;7.20;59.60;;;;;;5071663;28;39827;-86
2021/01/30 05:19:49;;;;;;;3.17;1.37;;;7.20;59.50;;;;;;5070760;28;38322;-86
2021/01/30 05:22:18;;;;;;;1.37;0.60;;;7.20;59.50;;;;;;5056236;28;39514;-87
2021/01/30 05:24:45;;;;;;;1.40;0.80;;;7.20;59.20;;;;;;5073928;28;38316;-87
2021/01/30 05:27:25;;;;;;;2.50;0.70;;;7.20;59.00;;;;;;5074591;28;39605;-87
2021/01/30 05:30:02;;;;;;;2.70;0.90;;;7.20;58.80;;;;;;5067983;28;39183;-86
2021/01/30 05:32:41;;;;;;;1.00;0.50;;;7.30;58.50;;;;;;5074229;28;38498;-86
2021/01/30 05:35:13;;;;;;;2.30;0.70;;;7.30;58.00;;;;;;5036126;28;35866;-88
2021/01/30 05:37:47;;;;;;;3.50;0.70;;;7.30;57.90;;;;;;5028522;28;40430;-88
2021/01/30 05:40:30;;;;;;;1.60;0.80;;;7.30;57.90;;;;;;5030957;28;39092;-87
2021/01/30 05:43:08;;;;;;;2.53;0.63;;;7.30;57.90;;;;;;5038695;28;37261;-89
2021/01/30 05:45:41;;;;;;;4.93;2.40;;;7.30;57.60;;;;;;5027605;28;37705;-85
2021/01/30 05:48:12;;;;;;;3.73;1.60;;;7.20;57.60;;;;;;5026579;28;21031;-85
2021/01/30 05:50:45;;;;;;;3.30;0.73;;;7.20;57.30;;;;;;5027685;28;40251;-85
2021/01/30 05:53:18;;;;;;;1.63;1.07;;;7.20;58.00;;;;;;5022131;28;37197;-85
2021/01/30 05:55:45;;;;;;;3.37;0.93;;;7.20;57.50;;;;;;5028041;28;36174;-85
2021/01/30 05:58:14;;;;;;;4.03;1.10;;;7.20;57.60;;;;;;5031540;28;39220;-85
2021/01/30 06:00:42;;;;;;;4.83;1.03;;;7.10;57.60;;;;;;5031544;28;39358;-85
2021/01/30 06:03:12;;;;;;;2.93;0.90;;;7.10;57.60;;;;;;5026274;28;38462;-85
2021/01/30 06:05:44;;;;;;;7.03;1.20;;;7.00;57.70;;;;;;5027461;28;37514;-85
2021/01/30 06:08:21;;;;;;;1.90;0.83;;;7.00;58.00;;;;;;5018958;28;39375;-85
2021/01/30 06:10:50;;;;;;;2.03;1.00;;;7.00;58.00;;;;;;5024070;28;37627;-85
2021/01/30 06:13:20;;;;;;;3.20;1.03;;;7.00;57.80;;;;;;5028520;28;39574;-87
2021/01/30 06:15:53;;;;;;;3.53;1.10;;;7.00;57.80;;;;;;5031298;28;35883;-86
2021/01/30 06:18:28;;;;;;;4.73;0.97;;;7.00;58.00;;;;;;5032377;28;40026;-87
2021/01/30 06:21:06;;;;;;;7.17;1.13;;;7.00;58.00;;;;;;5036716;28;39284;-87
2021/01/30 06:23:36;;;;;;;3.93;0.90;;;7.00;58.00;;;;;;5037200;28;37790;-86
2021/01/30 06:26:21;;;;;;;5.07;1.00;;;7.00;58.00;;;;;;5049333;28;36357;-87
2021/01/30 06:29:00;;;;;;;3.47;0.90;;;7.00;58.20;;;;;;5032132;28;39689;-88
2021/01/30 06:31:32;;;;;;;5.27;1.20;;;6.90;58.00;;;;;;5027059;28;39449;-87
2021/01/30 06:34:18;;;;;;;4.73;1.07;;;6.90;58.10;;;;;;5059638;28;36984;-87
2021/01/30 06:36:49;;;;;;;4.90;1.00;;;6.90;58.10;;;;;;5076610;28;37554;-88
2021/01/30 06:39:26;;;;;;;2.93;1.40;;;6.90;58.30;;;;;;5076012;28;39366;-87
2021/01/30 06:41:57;;;;;;;3.50;1.50;;;6.90;58.40;;;;;;5090920;28;38986;-87
2021/01/30 06:44:28;;;;;;;3.27;1.30;;;6.80;58.40;;;;;;5070707;28;38095;-86
2021/01/30 06:47:06;;;;;;;6.00;0.90;;;6.90;58.50;;;;;;5059092;28;37391;-87
2021/01/30 06:49:35;;;;;;;4.00;1.20;;;6.80;58.40;;;;;;5063776;28;40232;-87
2021/01/30 06:52:11;;;;;;;2.63;0.90;;;6.80;58.50;;;;;;5073001;28;39001;-88
2021/01/30 06:54:38;;;;;;;4.87;1.23;;;6.80;58.60;;;;;;5071196;28;39344;-87
2021/01/30 06:57:09;;;;;;;7.03;1.80;;;6.80;58.50;;;;;;5073519;28;37301;-88
2021/01/30 06:59:48;;;;;;;6.90;3.13;;;6.90;58.70;;;;;;5076568;28;40067;-86
2021/01/30 07:02:20;;;;;;;5.77;1.60;;;6.90;58.60;;;;;;5092868;28;39002;-87
2021/01/30 07:05:23;;;;;;;4.93;1.00;;;6.90;58.50;;;;;;5073922;28;39633;-87
2021/01/30 07:08:32;;;;;;;2.30;1.03;;;6.90;58.40;;;;;;5077311;28;38206;-85
2021/01/30 07:11:46;;;;;;;4.83;1.40;;;6.90;58.30;;;;;;5022458;28;39423;-84
2021/01/30 07:14:31;;;;;;;5.30;1.40;;;7.00;58.30;;;;;;4982300;28;38004;-85
2021/01/30 07:17:02;;;;;;;3.17;1.33;;;7.00;58.40;;;;;;5084046;28;37617;-85
2021/01/30 07:19:39;;;;;;;1.80;0.97;;;7.00;58.20;;;;;;5078501;28;38169;-84
2021/01/30 07:22:11;;;;;;;6.20;2.10;;;7.00;58.10;;;;;;5075826;28;40434;-85
2021/01/30 07:24:47;;;;;;;7.03;1.57;;;7.00;58.00;;;;;;5060668;28;39068;-85
2021/01/30 07:27:22;;;;;;;3.73;1.57;;;7.10;58.10;;;;;;5063870;28;38554;-85
2021/01/30 07:29:58;;;;;;;5.07;1.53;;;7.10;57.90;;;;;;5083774;28;36178;-86
2021/01/30 07:32:30;;;;;;;5.70;1.50;;;7.20;57.70;;;;;;5088398;28;38516;-85
2021/01/30 07:35:10;;;;;;;6.40;1.50;;;7.30;57.50;;;;;;5062332;28;38323;-84
2021/01/30 07:37:47;;;;;;;4.50;1.70;;;7.40;57.30;;;;;;5070457;28;37136;-85
2021/01/30 07:40:20;;;;;;;9.53;2.07;;;7.50;56.80;;;;;;5058226;28;36146;-85
2021/01/30 07:42:55;;;;;;;4.60;1.10;;;7.60;56.60;;;;;;5075429;28;39642;-84
2021/01/30 07:45:27;;;;;;;5.33;1.67;;;7.60;56.40;;;;;;5067433;28;39703;-85
2021/01/30 07:48:05;;;;;;;6.47;1.73;;;7.70;56.20;;;;;;5068378;28;38858;-86
2021/01/30 07:50:36;;;;;;;3.47;1.00;;;7.70;56.20;;;;;;5069923;28;37012;-85
2021/01/30 07:53:09;;;;;;;5.80;1.30;;;7.80;56.00;;;;;;5069003;28;39770;-85
2021/01/30 07:55:37;;;;;;;6.50;1.30;;;7.90;56.10;;;;;;5059410;28;39078;-85
2021/01/30 07:58:26;;;;;;;3.43;1.67;;;8.00;55.70;;;;;;5070595;28;39669;-85
2021/01/30 08:01:14;;;;;;;2.90;1.37;;;8.10;55.40;;;;;;5074145;28;37944;-86
2021/01/30 08:03:59;;;;;;;8.00;1.50;;;8.20;55.70;;;;;;5076218;28;38471;-88
2021/01/30 08:06:42;;;;;;;3.27;1.13;;;8.30;54.40;;;;;;5070785;28;39121;-85
2021/01/30 08:09:24;;;;;;;7.93;1.43;;;8.30;54.20;;;;;;5062827;28;38924;-85
2021/01/30 08:12:02;;;;;;;3.20;1.20;;;8.40;54.30;;;;;;5079084;28;35799;-85
2021/01/30 08:14:53;;;;;;;5.00;1.17;;;8.40;54.00;;;;;;5067879;28;39677;-85
2021/01/30 08:17:47;;;;;;;3.20;1.20;;;8.50;54.10;;;;;;5076673;28;37538;-85
2021/01/30 08:20:20;;;;;;;7.13;1.57;;;8.70;54.10;;;;;;5073631;28;38584;-86
2021/01/30 08:22:56;;;;;;;3.90;1.30;;;9.00;53.50;;;;;;5072872;28;38186;-86
2021/01/30 08:25:30;;;;;;;3.87;1.10;;;9.10;52.50;;;;;;5070118;28;39798;-87
2021/01/30 08:28:05;;;;;;;5.33;1.70;;;9.40;52.10;;;;;;5066709;28;38882;-89
2021/01/30 08:30:32;;;;;;;8.10;1.47;;;9.60;51.60;;;;;;5065372;28;37122;-87
2021/01/30 08:33:04;;;;;;;4.13;1.27;;;9.70;51.20;;;;;;5065110;28;37154;-87
2021/01/30 08:35:52;;;;;;;5.03;1.83;;;9.90;50.90;;;;;;5061867;28;38956;-87
2021/01/30 08:38:37;;;;;;;6.63;1.70;;;9.90;50.00;;;;;;5069551;28;38430;-87
2021/01/30 08:41:49;;;;;;;3.50;1.33;;;9.80;49.90;;;;;;5069487;28;37292;-88
2021/01/30 08:44:38;;;;;;;5.80;1.40;;;9.60;50.00;;;;;;5069746;28;37128;-88
2021/01/30 08:47:17;;;;;;;5.97;1.80;;;9.50;50.10;;;;;;5068623;28;38949;-87
2021/01/30 08:50:08;;;;;;;5.03;1.30;;;9.50;50.30;;;;;;5072519;28;39876;-87
2021/01/30 08:52:50;;;;;;;4.00;1.30;;;9.50;50.10;;;;;;5074044;28;38515;-87
2021/01/30 08:55:49;;;;;;;5.87;1.50;;;9.50;50.30;;;;;;5068304;28;36464;-87
2021/01/30 08:58:59;;;;;;;5.70;1.37;;;9.50;50.00;;;;;;5068853;28;39358;-87
2021/01/30 09:01:56;;;;;;;5.97;1.73;;;9.50;50.20;;;;;;5055861;28;39074;-86
2021/01/30 09:04:57;;;;;;;3.93;1.33;;;9.50;49.80;;;;;;4983872;28;37383;-88
2021/01/30 09:07:42;;;;;;;3.43;1.73;;;9.60;50.30;;;;;;5069270;28;37380;-88
2021/01/30 09:10:17;;;;;;;7.57;1.53;;;9.70;50.00;;;;;;5070853;28;40432;-88
2021/01/30 09:12:56;;;;;;;4.03;1.30;;;9.70;49.80;;;;;;5069612;28;39916;-88
2021/01/30 09:16:02;;;;;;;2.50;1.50;;;9.70;49.80;;;;;;5091583;28;38370;-87
2021/01/30 09:18:55;;;;;;;5.57;1.60;;;9.80;49.90;;;;;;5067599;28;36283;-89
2021/01/30 09:21:38;;;;;;;6.70;1.90;;;9.90;49.50;;;;;;5060434;28;39415;-88
2021/01/30 09:24:56;;;;;;;5.23;1.20;;;10.00;48.30;;;;;;5069901;28;38959;-88
2021/01/30 09:27:45;;;;;;;7.03;1.50;;;10.00;47.90;;;;;;5068854;28;37657;-88
2021/01/30 09:30:30;;;;;;;4.53;1.30;;;10.10;47.70;;;;;;5072403;28;35850;-88
2021/01/30 09:33:02;;;;;;;4.60;1.43;;;10.20;47.50;;;;;;5073861;28;40354;-88
2021/01/30 09:35:36;;;;;;;5.37;1.40;;;10.20;47.30;;;;;;5076843;28;38982;-88
2021/01/30 09:38:19;;;;;;;6.00;1.50;;;10.30;47.40;;;;;;5069429;28;37740;-88
2021/01/30 09:40:48;;;;;;;4.87;1.47;;;10.30;47.00;;;;;;5071808;28;38397;-89
2021/01/30 09:43:22;;;;;;;7.20;1.70;;;10.30;46.50;;;;;;5082412;28;39625;-88
2021/01/30 09:45:53;;;;;;;7.37;1.50;;;10.30;46.80;;;;;;5075361;28;40161;-87
2021/01/30 09:48:22;;;;;;;4.97;1.70;;;10.30;46.70;;;;;;5068273;28;38297;-87
2021/01/30 09:50:52;;;;;;;3.33;1.20;;;10.40;46.80;;;;;;5070308;28;36588;-87
2021/01/30 09:53:27;;;;;;;5.10;1.60;;;10.50;46.70;;;;;;5073307;28;40206;-87
2021/01/30 09:56:08;;;;;;;8.13;1.83;;;10.50;46.60;;;;;;5073207;28;38126;-87
2021/01/30 09:58:39;;;;;;;7.70;1.97;;;10.50;46.60;;;;;;5068089;28;39005;-88
2021/01/30 10:01:18;;;;;;;8.30;1.30;;;10.50;46.50;;;;;;5097940;28;35913;-88
2021/01/30 10:03:45;;;;;;;6.07;1.80;;;10.60;46.90;;;;;;5072190;28;40180;-88
2021/01/30 10:06:19;;;;;;;10.93;2.60;;;10.60;46.70;;;;;;5073111;28;38782;-88
2021/01/30 10:08:52;;;;;;;3.10;1.70;;;10.70;46.80;;;;;;5066182;28;39794;-88
2021/01/30 10:11:29;;;;;;;5.17;1.60;;;10.80;46.30;;;;;;5065231;28;37310;-88
2021/01/30 10:13:59;;;;;;;5.87;1.60;;;10.70;46.60;;;;;;5065180;28;38175;-87
2021/01/30 10:16:28;;;;;;;5.87;1.63;;;10.80;46.50;;;;;;5064604;28;39270;-87
2021/01/30 10:18:59;;;;;;;4.97;1.20;;;11.00;46.00;;;;;;5068908;28;37047;-86
2021/01/30 10:21:32;;;;;;;6.20;1.33;;;11.00;45.70;;;;;;5064537;28;36192;-87
2021/01/30 10:24:13;;;;;;;4.60;1.40;;;11.20;45.70;;;;;;5062861;28;40361;-87
2021/01/30 10:26:42;;;;;;;10.23;1.30;;;11.30;45.90;;;;;;5063363;28;40152;-88
2021/01/30 10:29:15;;;;;;;5.37;1.40;;;11.40;46.00;;;;;;5066519;28;37162;-87
2021/01/30 10:31:45;;;;;;;4.80;1.40;;;11.50;46.40;;;;;;5069700;28;36665;-87
2021/01/30 10:34:25;;;;;;;6.63;1.37;;;11.50;46.30;;;;;;5066242;28;40216;-87
2021/01/30 10:36:59;;;;;;;1.83;1.10;;;11.60;46.10;;;;;;5061732;28;39946;-88
2021/01/30 10:39:34;;;;;;;4.73;1.70;;;11.60;46.60;;;;;;5070952;28;38509;-89
2021/01/30 10:42:07;;;;;;;5.47;1.03;;;11.70;47.60;;;;;;5061416;28;37402;-87
2021/01/30 10:44:37;;;;;;;6.60;2.70;;;11.80;47.60;;;;;;5061155;28;39714;-87
2021/01/30 10:47:05;;;;;;;5.37;2.00;;;11.90;47.20;;;;;;5067108;28;40186;-87
2021/01/30 10:49:35;;;;;;;5.17;1.63;;;11.90;48.00;;;;;;5068737;28;39238;-86
2021/01/30 10:52:09;;;;;;;4.80;1.30;;;12.00;47.60;;;;;;5065787;28;37294;-87
2021/01/30 10:54:37;;;;;;;6.80;1.63;;;12.10;48.60;;;;;;5054238;28;39610;-87
2021/01/30 10:57:12;;;;;;;5.27;1.30;;;12.00;48.20;;;;;;5071311;28;39869;-86
2021/01/30 10:59:48;;;;;;;5.83;1.60;;;11.80;48.20;;;;;;5065534;28;37559;-84
2021/01/30 11:02:37;;;;;;;4.67;2.10;;;11.70;48.90;;;;;;5070955;28;37359;-86
2021/01/30 11:05:22;;;;;;;6.33;1.30;;;11.50;48.60;;;;;;5088590;28;38735;-85
2021/01/30 11:07:55;;;;;;;3.83;1.30;;;11.40;48.20;;;;;;5057251;28;39541;-86
2021/01/30 11:10:32;;;;;;;4.37;1.20;;;11.40;49.00;;;;;;5071815;28;37171;-86
2021/01/30 11:13:23;;;;;;;7.43;2.73;;;11.40;49.20;;;;;;5064283;28;37398;-86
2021/01/30 11:15:51;;;;;;;6.03;1.47;;;11.50;49.40;;;;;;5069957;28;39837;-86
2021/01/30 11:18:32;;;;;;;6.93;1.47;;;11.50;49.40;;;;;;5069490;28;39115;-85
2021/01/30 11:21:01;;;;;;;3.53;1.60;;;11.60;49.40;;;;;;5083716;28;37504;-86
2021/01/30 11:23:47;;;;;;;3.13;1.33;;;11.70;49.60;;;;;;5066488;28;35885;-86
2021/01/30 11:26:39;;;;;;;4.00;1.40;;;11.70;49.80;;;;;;5070195;28;41130;-85
2021/01/30 11:29:41;;;;;;;6.50;1.80;;;11.70;48.80;;;;;;5059432;28;39898;-87
2021/01/30 11:32:12;;;;;;;6.70;1.60;;;11.60;48.70;;;;;;5067399;28;38770;-86
2021/01/30 11:34:42;;;;;;;7.23;1.60;;;11.60;50.00;;;;;;5068105;28;35771;-86
2021/01/30 11:37:12;;;;;;;8.73;1.50;;;11.60;50.50;;;;;;5069280;28;39319;-85
2021/01/30 11:39:45;;;;;;;5.60;1.50;;;11.60;50.50;;;;;;5067109;28;40037;-85
2021/01/30 11:42:12;;;;;;;6.70;1.50;;;11.60;50.80;;;;;;5066927;28;38728;-86
2021/01/30 11:44:40;;;;;;;5.17;1.80;;;11.60;51.20;;;;;;5072176;28;37131;-85
2021/01/30 11:47:07;;;;;;;5.63;2.07;;;11.70;51.90;;;;;;5072865;28;40765;-87
2021/01/30 11:49:34;;;;;;;11.90;3.97;;;11.80;51.90;;;;;;5074526;28;39307;-85
2021/01/30 11:52:04;;;;;;;12.50;3.87;;;11.70;51.30;;;;;;5072638;28;37509;-85
2021/01/30 11:54:31;;;;;;;7.53;2.70;;;11.80;52.30;;;;;;5073622;28;36981;-85
2021/01/30 11:56:58;;;;;;;2.83;1.53;;;11.80;51.30;;;;;;5062693;28;40248;-86
2021/01/30 11:59:26;;;;;;;8.90;1.60;;;11.80;51.10;;;;;;5072863;28;39069;-85
2021/01/30 12:01:53;;;;;;;3.47;1.80;;;11.80;52.00;;;;;;5071350;28;37476;-85
2021/01/30 12:04:20;;;;;;;4.60;1.40;;;11.70;51.20;;;;;;5070038;28;37432;-85
2021/01/30 12:06:47;;;;;;;5.47;1.60;;;11.70;51.60;;;;;;5067618;28;39264;-85
2021/01/30 12:09:14;;;;;;;4.13;1.53;;;11.70;52.50;;;;;;5067279;28;39097;-85
2021/01/30 12:11:41;;;;;;;4.93;1.97;;;11.80;52.80;;;;;;5070237;28;39361;-85
2021/01/30 12:14:08;;;;;;;6.80;2.47;;;11.70;52.70;;;;;;5062584;28;36633;-87
2021/01/30 12:16:35;;;;;;;5.37;1.70;;;11.70;53.10;;;;;;5065882;28;39854;-84
2021/01/30 12:19:03;;;;;;;4.70;1.90;;;11.70;52.30;;;;;;5073082;28;38049;-85
2021/01/30 12:21:30;;;;;;;2.70;1.27;;;11.70;52.60;;;;;;5070558;28;38261;-83
2021/01/30 12:23:57;;;;;;;4.20;2.50;;;11.50;50.40;;;;;;5069217;28;38286;-84
2021/01/30 12:26:27;;;;;;;6.47;1.97;;;11.10;50.10;;;;;;5068458;28;39541;-85
2021/01/30 12:28:54;;;;;;;7.90;1.73;;;11.10;52.10;;;;;;5045609;28;38227;-85
2021/01/30 12:31:21;;;;;;;4.30;1.63;;;11.10;52.10;;;;;;5065434;28;37087;-85
2021/01/30 12:33:48;;;;;;;2.87;1.50;;;11.10;52.60;;;;;;5070877;28;37755;-86
2021/01/30 12:36:16;;;;;;;4.17;1.80;;;10.70;51.40;;;;;;5071502;28;38701;-85
2021/01/30 12:38:43;;;;;;;4.30;1.10;;;10.60;52.50;;;;;;5070171;28;37951;-85
2021/01/30 12:41:11;;;;;;;9.60;1.83;;;10.50;52.50;;;;;;5089027;28;38516;-85
2021/01/30 12:43:38;;;;;;;2.20;1.20;;;10.20;52.30;;;;;;5070098;28;36753;-85
2021/01/30 12:46:08;;;;;;;3.23;1.20;;;9.90;54.30;;;;;;5065301;28;42062;-84
2021/01/30 12:48:35;;;;;;;7.70;1.60;;;9.80;55.90;;;;;;5071489;28;40689;-85
2021/01/30 12:51:02;;;;;;;1.73;1.17;;;9.90;57.10;;;;;;5071667;28;38634;-84
2021/01/30 12:53:37;;;;;;;3.77;1.20;;;9.70;56.30;;;;;;5069876;28;37051;-85
2021/01/30 12:56:07;;;;;;;5.47;1.70;;;9.70;56.50;;;;;;5070464;28;38695;-85
2021/01/30 12:58:36;;;;;;;2.77;1.20;;;9.50;56.40;;;;;;5069948;28;39257;-84
2021/01/30 13:01:03;;;;;;;9.97;3.27;;;9.50;57.20;;;;;;5067950;28;39010;-86
2021/01/30 13:03:30;;;;;;;5.23;1.47;;;9.40;57.10;;;;;;5067675;28;37048;-84
2021/01/30 13:05:57;;;;;;;2.23;1.10;;;9.50;57.60;;;;;;5067172;28;40490;-86
2021/01/30 13:08:24;;;;;;;1.73;1.10;;;9.50;56.80;;;;;;5064104;28;39531;-85
2021/01/30 13:10:53;;;;;;;4.17;1.50;;;9.30;57.10;;;;;;5071944;28;38076;-84
2021/01/30 13:13:22;;;;;;;2.60;1.40;;;9.30;57.00;;;;;;5065341;28;37000;-84
2021/01/30 13:15:49;;;;;;;4.20;1.80;;;9.30;57.80;;;;;;5066528;28;39649;-85
2021/01/30 13:18:16;;;;;;;2.50;1.03;;;9.40;57.90;;;;;;5069537;28;38741;-85
2021/01/30 13:20:43;;;;;;;3.20;0.90;;;9.40;58.00;;;;;;5069257;28;37620;-85
2021/01/30 13:23:10;;;;;;;3.40;0.87;;;9.50;57.60;;;;;;5061479;28;37920;-85
2021/01/30 13:25:37;;;;;;;4.00;0.80;;;9.40;56.90;;;;;;5064978;28;40693;-85
2021/01/30 13:28:13;;;;;;;2.40;0.97;;;9.40;57.40;;;;;;5069675;28;39309;-87
2021/01/30 13:30:40;;;;;;;3.53;1.23;;;9.40;57.80;;;;;;5067207;28;38498;-86